Time;durP1;ratioP1;P1;durP2;ratioP2;P2;SDS_P1;SDS_P2;PMS_P1;PMS_P2;Temp;Humidity;BMP_temperature;BMP_pressure;BME280_temperature;BME280_humidity;BME280_pressure;Samples;Min_cycle;Max_cycle;Signal;HPM_P1;HPM_P2
2022/09/27 00:01:06;;;;;;;30.33;22.38;;;;;;;;;;4983469;28;20922;-83
2022/09/27 00:03:32;;;;;;;27.75;21.80;;;;;;;;;;4986575;28;20436;-83
2022/09/27 00:06:05;;;;;;;28.63;21.17;;;;;;;;;;4984461;28;20789;-82
2022/09/27 00:08:32;;;;;;;28.75;21.38;;;;;;;;;;4982612;28;20439;-82
2022/09/27 00:10:59;;;;;;;28.23;21.30;;;;;;;;;;4984953;28;20798;-83
2022/09/27 00:13:26;;;;;;;25.60;19.45;;;;;;;;;;4980807;28;20426;-84
2022/09/27 00:15:55;;;;;;;25.40;21.15;;;;;;;;;;4984537;28;20440;-82
2022/09/27 00:18:22;;;;;;;26.67;20.88;;;;;;;;;;4982008;28;20526;-82
2022/09/27 00:20:50;;;;;;;25.37;19.63;;;;;;;;;;4986298;28;20463;-83
2022/09/27 00:23:18;;;;;;;25.20;19.13;;;;;;;;;;4985384;28;20438;-83
2022/09/27 00:25:54;;;;;;;23.33;19.00;;;;;;;;;;4983141;28;20440;-83
2022/09/27 00:28:20;;;;;;;26.65;18.80;;;;;;;;;;4980590;28;20436;-82
2022/09/27 00:30:47;;;;;;;27.07;19.00;;;;;;;;;;4985770;28;20483;-82
2022/09/27 00:33:13;;;;;;;26.42;18.10;;;;;;;;;;4986344;28;20430;-82
2022/09/27 00:35:40;;;;;;;27.67;18.90;;;;;;;;;;4985177;28;20430;-82
2022/09/27 00:38:07;;;;;;;25.85;18.45;;;;;;;;;;4981779;28;20448;-82
2022/09/27 00:40:34;;;;;;;25.88;17.58;;;;;;;;;;4983622;28;20440;-83
2022/09/27 00:43:01;;;;;;;23.70;18.13;;;;;;;;;;4982606;28;20426;-82
2022/09/27 00:45:30;;;;;;;25.33;17.63;;;;;;;;;;4982713;28;20434;-81
2022/09/27 00:47:59;;;;;;;23.45;16.38;;;;;;;;;;4980739;28;20445;-82
2022/09/27 00:50:28;;;;;;;24.02;17.40;;;;;;;;;;4987755;28;20430;-83
2022/09/27 00:52:59;;;;;;;25.98;16.52;;;;;;;;;;4983121;28;20448;-81
2022/09/27 00:55:29;;;;;;;21.50;15.80;;;;;;;;;;4982546;28;20410;-83
2022/09/27 00:57:57;;;;;;;23.43;17.60;;;;;;;;;;4980507;28;20434;-85
2022/09/27 01:00:23;;;;;;;23.23;15.93;;;;;;;;;;4982557;28;20814;-84
2022/09/27 01:02:51;;;;;;;20.50;15.30;;;;;;;;;;5000156;28;20427;-85
2022/09/27 01:05:19;;;;;;;26.85;15.10;;;;;;;;;;4962927;28;20432;-84
2022/09/27 01:07:45;;;;;;;18.27;14.10;;;;;;;;;;4974846;28;20430;-83
2022/09/27 01:10:12;;;;;;;20.38;13.70;;;;;;;;;;4984886;28;20448;-84
2022/09/27 01:12:42;;;;;;;22.25;13.80;;;;;;;;;;4982537;28;20955;-84
2022/09/27 01:15:14;;;;;;;20.05;13.55;;;;;;;;;;4984781;28;20488;-83
2022/09/27 01:17:47;;;;;;;18.90;14.13;;;;;;;;;;4984684;28;20437;-84
2022/09/27 01:20:23;;;;;;;17.67;12.80;;;;;;;;;;4985814;28;20437;-84
2022/09/27 01:23:01;;;;;;;19.33;12.83;;;;;;;;;;4984958;28;20808;-84
2022/09/27 01:25:36;;;;;;;21.48;13.60;;;;;;;;;;4983795;28;20452;-86
2022/09/27 01:28:13;;;;;;;19.88;12.25;;;;;;;;;;5011104;28;21106;-84
2022/09/27 01:30:48;;;;;;;16.70;11.35;;;;;;;;;;4982536;28;20444;-84
2022/09/27 01:33:22;;;;;;;17.13;11.00;;;;;;;;;;4989095;28;20430;-84
2022/09/27 01:35:54;;;;;;;16.90;12.38;;;;;;;;;;4983660;28;20570;-84
2022/09/27 01:38:24;;;;;;;16.30;10.95;;;;;;;;;;4985603;28;20426;-83
2022/09/27 01:40:53;;;;;;;15.23;10.75;;;;;;;;;;4988638;28;20448;-84
2022/09/27 01:43:23;;;;;;;18.00;10.90;;;;;;;;;;4984756;28;20430;-83
2022/09/27 01:45:53;;;;;;;17.70;10.80;;;;;;;;;;4987177;28;20516;-84
2022/09/27 01:48:22;;;;;;;12.52;9.20;;;;;;;;;;4986334;28;20430;-84
2022/09/27 01:50:51;;;;;;;13.30;9.20;;;;;;;;;;4991078;28;20464;-84
2022/09/27 01:53:20;;;;;;;12.52;8.50;;;;;;;;;;4986912;28;20430;-84
2022/09/27 01:55:48;;;;;;;17.65;9.13;;;;;;;;;;4988341;28;20812;-82
2022/09/27 01:58:17;;;;;;;12.57;8.07;;;;;;;;;;4986587;28;20426;-82
2022/09/27 02:00:45;;;;;;;11.88;7.60;;;;;;;;;;4984381;28;20434;-83
2022/09/27 02:03:17;;;;;;;10.13;7.50;;;;;;;;;;4986610;28;20430;-82
2022/09/27 02:05:44;;;;;;;12.52;7.43;;;;;;;;;;4984685;28;20809;-82
2022/09/27 02:08:14;;;;;;;12.80;7.25;;;;;;;;;;4987548;28;20433;-82
2022/09/27 02:10:42;;;;;;;9.13;6.82;;;;;;;;;;4985525;28;20446;-83
2022/09/27 02:13:15;;;;;;;9.45;6.40;;;;;;;;;;4986982;28;20428;-83
2022/09/27 02:15:47;;;;;;;8.05;6.00;;;;;;;;;;4986192;28;20934;-83
2022/09/27 02:18:19;;;;;;;7.32;5.40;;;;;;;;;;4986573;28;20422;-83
2022/09/27 02:20:49;;;;;;;8.10;5.90;;;;;;;;;;4985982;28;20428;-84
2022/09/27 02:23:19;;;;;;;7.60;5.20;;;;;;;;;;4986083;28;20442;-82
2022/09/27 02:25:49;;;;;;;8.32;5.10;;;;;;;;;;4986570;28;20468;-84
2022/09/27 02:28:22;;;;;;;10.73;4.57;;;;;;;;;;4986371;28;20422;-82
2022/09/27 02:30:49;;;;;;;5.63;4.30;;;;;;;;;;4988709;28;20422;-82
2022/09/27 02:33:17;;;;;;;6.55;4.00;;;;;;;;;;4985927;28;20424;-84
2022/09/27 02:35:44;;;;;;;8.70;4.18;;;;;;;;;;4983169;28;20514;-85
2022/09/27 02:38:11;;;;;;;6.47;3.63;;;;;;;;;;4983202;28;20510;-83
2022/09/27 02:40:42;;;;;;;5.93;3.72;;;;;;;;;;4987256;28;20447;-84
2022/09/27 02:43:10;;;;;;;5.90;3.57;;;;;;;;;;4968074;28;20822;-84
2022/09/27 02:45:41;;;;;;;4.30;3.03;;;;;;;;;;4985744;28;20428;-83
2022/09/27 02:48:15;;;;;;;4.90;2.90;;;;;;;;;;4985251;28;20429;-84
2022/09/27 02:50:49;;;;;;;4.97;3.00;;;;;;;;;;4984700;28;20434;-83
2022/09/27 02:53:19;;;;;;;5.50;2.60;;;;;;;;;;4984844;28;20510;-84
2022/09/27 02:55:49;;;;;;;6.20;2.65;;;;;;;;;;4986909;28;20839;-81
2022/09/27 02:58:21;;;;;;;5.75;2.80;;;;;;;;;;4984423;28;20434;-81
2022/09/27 03:00:49;;;;;;;7.32;2.80;;;;;;;;;;4986044;28;20438;-82
2022/09/27 03:03:18;;;;;;;4.88;2.80;;;;;;;;;;4988079;28;20427;-83
2022/09/27 03:05:48;;;;;;;5.50;2.40;;;;;;;;;;4988439;28;20485;-83
2022/09/27 03:08:17;;;;;;;6.10;2.30;;;;;;;;;;4987695;28;20418;-82
2022/09/27 03:10:44;;;;;;;5.70;2.30;;;;;;;;;;4984243;28;20472;-82
2022/09/27 03:13:10;;;;;;;4.70;2.00;;;;;;;;;;4985876;28;20434;-84
2022/09/27 03:15:37;;;;;;;4.13;2.00;;;;;;;;;;4985533;28;20439;-85
2022/09/27 03:18:03;;;;;;;4.25;2.30;;;;;;;;;;4986028;28;20426;-82
2022/09/27 03:20:30;;;;;;;5.47;2.20;;;;;;;;;;4985541;28;20436;-82
2022/09/27 03:22:58;;;;;;;4.63;2.33;;;;;;;;;;4986137;28;20429;-84
2022/09/27 03:25:25;;;;;;;7.05;2.00;;;;;;;;;;4985178;28;20767;-85
2022/09/27 03:27:53;;;;;;;6.40;2.20;;;;;;;;;;4983147;28;20884;-84
2022/09/27 03:30:20;;;;;;;5.10;2.10;;;;;;;;;;4986526;28;20801;-84
2022/09/27 03:32:46;;;;;;;6.22;1.83;;;;;;;;;;4982174;28;20475;-83
2022/09/27 03:35:13;;;;;;;3.73;2.10;;;;;;;;;;4984931;28;20442;-84
2022/09/27 03:37:41;;;;;;;4.53;2.10;;;;;;;;;;4983502;28;20428;-86
2022/09/27 03:40:09;;;;;;;7.65;2.30;;;;;;;;;;4985892;28;20463;-83
2022/09/27 03:42:37;;;;;;;8.95;3.00;;;;;;;;;;4983829;28;20685;-81
2022/09/27 03:45:04;;;;;;;7.82;3.30;;;;;;;;;;4986875;28;20923;-84
2022/09/27 03:47:31;;;;;;;7.00;4.25;;;;;;;;;;4983615;28;20435;-85
2022/09/27 03:49:57;;;;;;;11.15;4.60;;;;;;;;;;4986621;28;20433;-83
2022/09/27 03:52:25;;;;;;;7.93;4.63;;;;;;;;;;4985678;28;20434;-84
2022/09/27 03:54:52;;;;;;;6.45;4.80;;;;;;;;;;4985370;28;20460;-83
2022/09/27 03:57:20;;;;;;;8.88;5.40;;;;;;;;;;4983381;28;20449;-88
2022/09/27 03:59:46;;;;;;;11.02;6.65;;;;;;;;;;4985512;28;20445;-84
2022/09/27 04:02:13;;;;;;;10.60;6.32;;;;;;;;;;4984974;28;20482;-86
2022/09/27 04:04:39;;;;;;;9.27;6.22;;;;;;;;;;4984248;28;20438;-84
2022/09/27 04:07:07;;;;;;;10.25;6.57;;;;;;;;;;4985557;28;20427;-82
2022/09/27 04:09:34;;;;;;;9.55;6.00;;;;;;;;;;4986640;28;20433;-82
2022/09/27 04:12:01;;;;;;;11.18;6.85;;;;;;;;;;4984674;28;20793;-86
2022/09/27 04:14:28;;;;;;;9.43;7.37;;;;;;;;;;4983284;28;20997;-81
2022/09/27 04:16:55;;;;;;;13.40;6.70;;;;;;;;;;4979480;28;20424;-83
2022/09/27 04:19:23;;;;;;;9.23;6.90;;;;;;;;;;4984940;28;20418;-83
2022/09/27 04:21:50;;;;;;;14.00;6.97;;;;;;;;;;4985989;28;20445;-84
2022/09/27 04:24:17;;;;;;;11.10;6.78;;;;;;;;;;4982529;28;20435;-84
2022/09/27 04:26:43;;;;;;;10.50;6.43;;;;;;;;;;4984669;28;20435;-84
2022/09/27 04:29:10;;;;;;;11.45;7.10;;;;;;;;;;4982792;28;20433;-83
2022/09/27 04:31:40;;;;;;;10.37;6.47;;;;;;;;;;4983366;28;20457;-85
2022/09/27 04:34:07;;;;;;;9.82;6.72;;;;;;;;;;4983623;28;20977;-84
2022/09/27 04:36:32;;;;;;;11.67;6.50;;;;;;;;;;4983567;28;20874;-84
2022/09/27 04:39:01;;;;;;;8.17;5.60;;;;;;;;;;4983885;28;20513;-83
2022/09/27 04:41:29;;;;;;;10.32;6.20;;;;;;;;;;4983143;28;20433;-83
2022/09/27 04:43:56;;;;;;;8.07;5.57;;;;;;;;;;4984558;28;20443;-85
2022/09/27 04:46:23;;;;;;;9.65;5.35;;;;;;;;;;4985243;28;20490;-84
2022/09/27 04:48:51;;;;;;;8.13;4.88;;;;;;;;;;4985206;28;20496;-83
2022/09/27 04:51:18;;;;;;;8.43;5.50;;;;;;;;;;4983855;28;20939;-84
2022/09/27 04:53:45;;;;;;;7.25;4.53;;;;;;;;;;4985765;28;20444;-83
2022/09/27 04:56:12;;;;;;;8.52;4.30;;;;;;;;;;4982639;28;20438;-85
2022/09/27 04:58:38;;;;;;;10.80;4.63;;;;;;;;;;4982322;28;20434;-84
2022/09/27 05:01:08;;;;;;;9.25;4.10;;;;;;;;;;4983793;28;20438;-84
2022/09/27 05:03:34;;;;;;;7.97;4.00;;;;;;;;;;4986700;28;20440;-82
2022/09/27 05:06:02;;;;;;;6.25;3.40;;;;;;;;;;4983341;28;20453;-81
2022/09/27 05:08:29;;;;;;;9.38;3.78;;;;;;;;;;4985265;28;20442;-83
2022/09/27 05:10:55;;;;;;;5.50;3.50;;;;;;;;;;4981947;28;20441;-85
2022/09/27 05:13:23;;;;;;;5.22;3.30;;;;;;;;;;4984701;28;20443;-84
2022/09/27 05:15:51;;;;;;;7.63;3.00;;;;;;;;;;4986203;28;20439;-82
2022/09/27 05:18:18;;;;;;;4.55;2.80;;;;;;;;;;4984052;28;20433;-81
2022/09/27 05:20:44;;;;;;;5.95;2.90;;;;;;;;;;4982751;28;20953;-84
2022/09/27 05:23:12;;;;;;;5.60;3.10;;;;;;;;;;4983323;28;20426;-83
2022/09/27 05:25:39;;;;;;;6.30;2.80;;;;;;;;;;4984045;28;20439;-83
2022/09/27 05:28:08;;;;;;;5.90;3.05;;;;;;;;;;4983028;28;20430;-82
2022/09/27 05:30:35;;;;;;;4.10;2.92;;;;;;;;;;4981879;28;20444;-82
2022/09/27 05:33:01;;;;;;;4.82;3.10;;;;;;;;;;4983084;28;22476;-83
2022/09/27 05:35:27;;;;;;;3.90;3.10;;;;;;;;;;4981718;28;20936;-83
2022/09/27 05:37:54;;;;;;;4.88;3.03;;;;;;;;;;4983986;28;20438;-84
2022/09/27 05:40:23;;;;;;;3.33;2.80;;;;;;;;;;4985672;28;20441;-85
2022/09/27 05:42:50;;;;;;;6.97;3.20;;;;;;;;;;4981875;28;20501;-82
2022/09/27 05:45:16;;;;;;;6.43;3.50;;;;;;;;;;4981775;28;20510;-83
2022/09/27 05:47:43;;;;;;;4.75;3.40;;;;;;;;;;4981539;28;20426;-81
2022/09/27 05:50:09;;;;;;;4.43;3.50;;;;;;;;;;4983462;28;20437;-82
2022/09/27 05:52:36;;;;;;;6.25;4.28;;;;;;;;;;4984344;28;20431;-84
2022/09/27 05:55:03;;;;;;;6.80;4.40;;;;;;;;;;4983828;28;20437;-82
2022/09/27 05:57:30;;;;;;;7.10;4.25;;;;;;;;;;4983347;28;20437;-84
2022/09/27 05:59:57;;;;;;;7.15;4.80;;;;;;;;;;4977589;28;20428;-84
2022/09/27 06:02:23;;;;;;;8.50;5.72;;;;;;;;;;4981586;28;20434;-85
2022/09/27 06:04:50;;;;;;;7.80;5.20;;;;;;;;;;4982559;28;20859;-84
2022/09/27 06:07:16;;;;;;;8.75;5.88;;;;;;;;;;4982489;28;20430;-85
2022/09/27 06:09:43;;;;;;;10.23;6.43;;;;;;;;;;4982383;28;20514;-85
2022/09/27 06:12:10;;;;;;;10.63;6.70;;;;;;;;;;4980201;28;20496;-84
2022/09/27 06:14:39;;;;;;;12.15;7.55;;;;;;;;;;4982333;28;20420;-84
2022/09/27 06:17:05;;;;;;;13.18;8.80;;;;;;;;;;4981825;28;20435;-84
2022/09/27 06:19:32;;;;;;;15.50;8.82;;;;;;;;;;4983730;28;20826;-84
2022/09/27 06:21:59;;;;;;;13.93;9.07;;;;;;;;;;4984148;28;20442;-84
2022/09/27 06:24:25;;;;;;;13.77;9.82;;;;;;;;;;4984468;28;20963;-84
2022/09/27 06:26:51;;;;;;;18.02;10.88;;;;;;;;;;4986383;28;20429;-82
2022/09/27 06:29:18;;;;;;;17.47;11.30;;;;;;;;;;5000378;28;20494;-84
2022/09/27 06:31:46;;;;;;;20.40;12.93;;;;;;;;;;4983894;28;20789;-85
2022/09/27 06:34:12;;;;;;;22.63;14.00;;;;;;;;;;4985951;28;20442;-84
2022/09/27 06:36:39;;;;;;;19.87;14.30;;;;;;;;;;4983933;28;20426;-84
2022/09/27 06:39:06;;;;;;;19.90;14.27;;;;;;;;;;4984795;28;20420;-83
2022/09/27 06:41:33;;;;;;;17.00;13.02;;;;;;;;;;4985119;28;20419;-85
2022/09/27 06:44:00;;;;;;;15.55;11.80;;;;;;;;;;4986430;28;20420;-83
2022/09/27 06:46:26;;;;;;;19.00;11.30;;;;;;;;;;4966550;28;20416;-85
2022/09/27 06:48:57;;;;;;;17.00;11.18;;;;;;;;;;4986570;28;20444;-84
2022/09/27 06:51:23;;;;;;;14.82;9.98;;;;;;;;;;4985470;28;20847;-83
2022/09/27 06:53:49;;;;;;;11.20;9.00;;;;;;;;;;4985506;28;20929;-83
2022/09/27 06:56:16;;;;;;;13.82;8.10;;;;;;;;;;4984959;28;20508;-84
2022/09/27 07:01:27;;;;;;;7.22;4.82;;;;;;;;;;4984614;28;20410;-81
2022/09/27 07:03:57;;;;;;;8.50;4.40;;;;;;;;;;4985550;28;20847;-84
2022/09/27 07:06:24;;;;;;;9.00;4.57;;;;;;;;;;4983750;28;20505;-83
2022/09/27 07:08:52;;;;;;;7.50;4.30;;;;;;;;;;4985316;28;20454;-83
2022/09/27 07:11:18;;;;;;;8.32;3.35;;;;;;;;;;4984397;28;20433;-84
2022/09/27 07:13:45;;;;;;;6.17;3.10;;;;;;;;;;4983534;28;20519;-83
2022/09/27 07:16:13;;;;;;;4.07;2.80;;;;;;;;;;4984793;28;20439;-84
2022/09/27 07:18:39;;;;;;;9.18;3.35;;;;;;;;;;4984009;28;20418;-83
2022/09/27 07:21:08;;;;;;;5.50;2.60;;;;;;;;;;4983565;28;20516;-84
2022/09/27 07:23:35;;;;;;;5.10;2.10;;;;;;;;;;4983768;28;20426;-83
2022/09/27 07:26:03;;;;;;;3.67;1.95;;;;;;;;;;4985776;28;20791;-84
2022/09/27 07:28:30;;;;;;;4.70;2.00;;;;;;;;;;4981928;28;20456;-85
2022/09/27 07:30:56;;;;;;;2.90;1.90;;;;;;;;;;4982214;28;20439;-83
2022/09/27 07:33:22;;;;;;;4.30;2.00;;;;;;;;;;4987075;28;20428;-84
2022/09/27 07:35:49;;;;;;;3.20;1.60;;;;;;;;;;4984953;28;20439;-85
2022/09/27 07:38:17;;;;;;;3.25;1.70;;;;;;;;;;4982706;28;20440;-83
2022/09/27 07:40:43;;;;;;;2.30;1.77;;;;;;;;;;4983202;28;20427;-83
2022/09/27 07:43:11;;;;;;;4.20;1.73;;;;;;;;;;4983897;28;20424;-82
2022/09/27 07:45:37;;;;;;;3.55;1.90;;;;;;;;;;4984316;28;20453;-82
2022/09/27 07:48:05;;;;;;;4.53;1.90;;;;;;;;;;4986848;28;20422;-84
2022/09/27 07:50:32;;;;;;;3.65;1.58;;;;;;;;;;4983989;28;20434;-84
2022/09/27 07:52:58;;;;;;;3.03;1.50;;;;;;;;;;4983387;28;20426;-83
2022/09/27 07:55:26;;;;;;;2.90;1.40;;;;;;;;;;5020795;28;20899;-84
2022/09/27 07:58:01;;;;;;;4.50;1.80;;;;;;;;;;4984556;28;20435;-84
2022/09/27 08:00:28;;;;;;;4.15;1.40;;;;;;;;;;4982629;28;20436;-83
2022/09/27 08:02:54;;;;;;;2.60;1.40;;;;;;;;;;4984373;28;20473;-83
2022/09/27 08:05:21;;;;;;;5.10;1.65;;;;;;;;;;4986175;28;20440;-84
2022/09/27 08:07:47;;;;;;;2.80;1.27;;;;;;;;;;4984368;28;20424;-83
2022/09/27 08:10:14;;;;;;;2.53;1.27;;;;;;;;;;4983776;28;20430;-83
2022/09/27 08:12:42;;;;;;;2.77;1.30;;;;;;;;;;4984283;28;20432;-83
2022/09/27 08:15:09;;;;;;;3.45;1.30;;;;;;;;;;4981278;28;20441;-83
2022/09/27 08:17:36;;;;;;;2.05;1.50;;;;;;;;;;4984449;28;20874;-83
2022/09/27 08:20:05;;;;;;;2.67;1.20;;;;;;;;;;4983606;28;20414;-84
2022/09/27 08:22:32;;;;;;;3.17;1.50;;;;;;;;;;4981177;28;20509;-84
2022/09/27 08:24:58;;;;;;;2.88;1.05;;;;;;;;;;4983252;28;20418;-84
2022/09/27 08:27:26;;;;;;;3.25;1.10;;;;;;;;;;4983827;28;20418;-84
2022/09/27 08:29:55;;;;;;;2.78;1.40;;;;;;;;;;4982325;28;20444;-82
2022/09/27 08:32:22;;;;;;;6.70;1.40;;;;;;;;;;4982661;28;20430;-84
2022/09/27 08:34:49;;;;;;;3.70;1.42;;;;;;;;;;4983427;28;20434;-83
2022/09/27 08:37:15;;;;;;;4.30;1.40;;;;;;;;;;4981114;28;20425;-83
2022/09/27 08:39:42;;;;;;;4.53;1.50;;;;;;;;;;4981292;28;20881;-84
2022/09/27 08:42:16;;;;;;;2.60;1.30;;;;;;;;;;4983155;28;20439;-83
2022/09/27 08:44:46;;;;;;;3.70;1.40;;;;;;;;;;4985173;28;20430;-83
2022/09/27 08:47:15;;;;;;;4.60;1.40;;;;;;;;;;4985293;28;20950;-83
2022/09/27 08:49:45;;;;;;;4.70;1.60;;;;;;;;;;4984844;28;20453;-84
2022/09/27 08:52:14;;;;;;;3.70;1.30;;;;;;;;;;4979528;28;20427;-82
2022/09/27 08:54:41;;;;;;;5.05;1.20;;;;;;;;;;4983857;28;20439;-84
2022/09/27 08:57:10;;;;;;;6.82;1.80;;;;;;;;;;4982398;28;20435;-81
2022/09/27 08:59:40;;;;;;;2.80;1.50;;;;;;;;;;4981146;28;20414;-83
2022/09/27 09:02:13;;;;;;;3.25;1.20;;;;;;;;;;4981478;28;20418;-84
2022/09/27 09:04:41;;;;;;;3.40;1.40;;;;;;;;;;4983919;28;20438;-84
2022/09/27 09:07:12;;;;;;;2.65;1.17;;;;;;;;;;4981515;28;20774;-83
2022/09/27 09:09:45;;;;;;;2.40;1.20;;;;;;;;;;4983226;28;20439;-84
2022/09/27 09:15:16;;;;;;;3.85;1.02;;;;;;;;;;4983787;28;20403;-84
2022/09/27 09:17:49;;;;;;;2.53;1.02;;;;;;;;;;4981623;28;20415;-85
2022/09/27 09:20:34;;;;;;;5.03;1.10;;;;;;;;;;4983473;28;20439;-84
2022/09/27 09:23:16;;;;;;;2.53;1.47;;;;;;;;;;4985391;28;20422;-83
2022/09/27 09:25:49;;;;;;;3.20;1.20;;;;;;;;;;4982079;28;20437;-85
2022/09/27 09:28:21;;;;;;;2.78;1.48;;;;;;;;;;4983811;28;20426;-83
2022/09/27 09:30:50;;;;;;;3.15;1.40;;;;;;;;;;5014042;28;20459;-83
2022/09/27 09:33:22;;;;;;;3.40;1.95;;;;;;;;;;4981032;28;20426;-84
2022/09/27 09:35:53;;;;;;;4.93;2.00;;;;;;;;;;4982045;28;20422;-84
2022/09/27 09:38:22;;;;;;;4.70;2.17;;;;;;;;;;4982039;28;20416;-83
2022/09/27 09:40:52;;;;;;;6.55;2.47;;;;;;;;;;4983954;28;20410;-84
2022/09/27 09:43:21;;;;;;;2.97;2.20;;;;;;;;;;4982094;28;20444;-84
2022/09/27 09:45:49;;;;;;;3.75;1.70;;;;;;;;;;4981454;28;20438;-85
2022/09/27 09:48:19;;;;;;;3.40;1.80;;;;;;;;;;4981766;28;20437;-82
2022/09/27 09:50:47;;;;;;;5.72;2.10;;;;;;;;;;4981209;28;20435;-84
2022/09/27 09:53:16;;;;;;;3.22;1.95;;;;;;;;;;4984179;28;20432;-85
2022/09/27 09:55:45;;;;;;;4.25;2.00;;;;;;;;;;4988208;28;20511;-83
2022/09/27 09:58:19;;;;;;;3.83;2.00;;;;;;;;;;4984103;28;20949;-84
2022/09/27 10:00:46;;;;;;;3.42;2.20;;;;;;;;;;4984985;28;20418;-84
2022/09/27 10:03:13;;;;;;;4.38;2.10;;;;;;;;;;4989244;28;20947;-83
2022/09/27 10:05:43;;;;;;;7.07;5.00;;;;;;;;;;4987378;28;20792;-84
2022/09/27 10:08:13;;;;;;;7.95;3.10;;;;;;;;;;4986682;28;20418;-83
2022/09/27 10:10:40;;;;;;;4.43;2.22;;;;;;;;;;4985670;28;20941;-83
2022/09/27 10:13:12;;;;;;;3.35;2.80;;;;;;;;;;4986570;28;20427;-83
2022/09/27 10:15:39;;;;;;;3.83;2.70;;;;;;;;;;4987686;28;20436;-84
2022/09/27 10:18:06;;;;;;;4.85;1.90;;;;;;;;;;4986497;28;20452;-83
2022/09/27 10:20:39;;;;;;;3.20;2.08;;;;;;;;;;4990091;28;20423;-81
2022/09/27 10:23:11;;;;;;;5.80;2.10;;;;;;;;;;4988230;28;20430;-82
2022/09/27 10:25:48;;;;;;;6.38;2.30;;;;;;;;;;4990900;28;20426;-82
2022/09/27 10:28:32;;;;;;;4.03;2.40;;;;;;;;;;4986111;28;20437;-83
2022/09/27 10:30:59;;;;;;;28.33;21.02;;;;;;;;;;4987574;28;20958;-84
2022/09/27 10:33:27;;;;;;;13.63;7.30;;;;;;;;;;4989408;28;20424;-82
2022/09/27 10:35:53;;;;;;;10.90;8.00;;;;;;;;;;4989778;28;20510;-83
2022/09/27 10:38:22;;;;;;;7.27;6.20;;;;;;;;;;4988085;28;20424;-81
2022/09/27 10:40:50;;;;;;;4.85;4.10;;;;;;;;;;4989846;28;20411;-84
2022/09/27 10:43:24;;;;;;;15.95;13.77;;;;;;;;;;4983065;28;20447;-82
2022/09/27 10:45:51;;;;;;;8.05;6.35;;;;;;;;;;4984759;28;20450;-85
2022/09/27 10:48:19;;;;;;;5.40;3.65;;;;;;;;;;4985752;28;20535;-83
2022/09/27 10:50:56;;;;;;;5.18;3.65;;;;;;;;;;4985809;28;20441;-82
2022/09/27 10:53:22;;;;;;;5.90;4.82;;;;;;;;;;4987931;28;20446;-83
2022/09/27 10:55:52;;;;;;;5.10;3.67;;;;;;;;;;4985583;28;20431;-85
2022/09/27 10:58:20;;;;;;;13.32;11.20;;;;;;;;;;4988464;28;20426;-83
2022/09/27 11:00:54;;;;;;;11.48;10.48;;;;;;;;;;4987476;28;20459;-84
2022/09/27 11:03:21;;;;;;;12.38;11.43;;;;;;;;;;4997992;28;20422;-84
2022/09/27 11:05:48;;;;;;;4.70;3.70;;;;;;;;;;4986091;28;20908;-84
2022/09/27 11:08:23;;;;;;;6.18;4.50;;;;;;;;;;4986751;28;20418;-83
2022/09/27 11:11:05;;;;;;;4.53;3.53;;;;;;;;;;4983845;28;20432;-84
2022/09/27 11:13:34;;;;;;;4.63;3.03;;;;;;;;;;4982776;28;20468;-85
2022/09/27 11:16:08;;;;;;;5.25;2.95;;;;;;;;;;4989368;28;20438;-83
2022/09/27 11:18:39;;;;;;;3.90;2.53;;;;;;;;;;4988249;28;20438;-82
2022/09/27 11:21:11;;;;;;;5.20;3.25;;;;;;;;;;4986978;28;20920;-85
2022/09/27 11:23:44;;;;;;;6.47;3.83;;;;;;;;;;4983487;28;20439;-84
2022/09/27 11:26:17;;;;;;;7.15;4.63;;;;;;;;;;4988399;28;20438;-82
2022/09/27 11:28:50;;;;;;;4.28;2.40;;;;;;;;;;4984040;28;20427;-84
2022/09/27 11:31:20;;;;;;;4.85;2.28;;;;;;;;;;4981503;28;20434;-85
2022/09/27 11:34:01;;;;;;;50.13;27.20;;;;;;;;;;4985266;28;20437;-84
2022/09/27 11:36:34;;;;;;;143.10;51.00;;;;;;;;;;4985537;28;20415;-83
2022/09/27 11:39:06;;;;;;;54.00;22.67;;;;;;;;;;4984757;28;20444;-82
2022/09/27 11:41:40;;;;;;;62.70;30.05;;;;;;;;;;4984628;28;20428;-84
2022/09/27 11:44:27;;;;;;;51.07;22.37;;;;;;;;;;4986313;28;20453;-82
2022/09/27 11:47:03;;;;;;;41.28;22.42;;;;;;;;;;4979487;28;20432;-82
2022/09/27 11:49:41;;;;;;;14.30;7.22;;;;;;;;;;4986501;28;20521;-81
2022/09/27 11:52:17;;;;;;;4.90;2.83;;;;;;;;;;4985925;28;20422;-82
2022/09/27 11:54:49;;;;;;;6.22;3.70;;;;;;;;;;4983951;28;20439;-81
2022/09/27 11:57:20;;;;;;;5.88;4.00;;;;;;;;;;4983428;28;20422;-82
2022/09/27 12:00:04;;;;;;;5.00;3.95;;;;;;;;;;4983761;28;20424;-84
2022/09/27 12:02:40;;;;;;;6.05;2.85;;;;;;;;;;4985033;28;20441;-82
2022/09/27 12:05:16;;;;;;;5.88;3.47;;;;;;;;;;4984910;28;20791;-85
2022/09/27 12:07:44;;;;;;;2.50;2.13;;;;;;;;;;4982461;28;20506;-82
2022/09/27 12:10:13;;;;;;;5.75;2.50;;;;;;;;;;4985643;28;20430;-82
2022/09/27 12:12:44;;;;;;;4.20;2.78;;;;;;;;;;4983759;28;20518;-83
2022/09/27 12:15:14;;;;;;;3.70;2.40;;;;;;;;;;4988091;28;20434;-82
2022/09/27 12:17:44;;;;;;;3.50;2.10;;;;;;;;;;4983202;28;20420;-82
2022/09/27 12:20:14;;;;;;;3.45;1.63;;;;;;;;;;4982853;28;20422;-82
2022/09/27 12:22:44;;;;;;;2.97;2.25;;;;;;;;;;4985174;28;20435;-84
2022/09/27 12:25:13;;;;;;;3.80;1.77;;;;;;;;;;4986825;28;20525;-83
2022/09/27 12:27:41;;;;;;;4.65;2.38;;;;;;;;;;4984927;28;20432;-83
2022/09/27 12:30:12;;;;;;;6.13;2.50;;;;;;;;;;4984258;28;20530;-84
2022/09/27 12:32:44;;;;;;;3.20;2.08;;;;;;;;;;4985627;28;20439;-84
2022/09/27 12:35:16;;;;;;;4.05;1.58;;;;;;;;;;4986021;28;20432;-82
2022/09/27 12:37:45;;;;;;;5.00;1.80;;;;;;;;;;4984053;28;20428;-82
2022/09/27 12:40:16;;;;;;;3.30;1.48;;;;;;;;;;4984061;28;20933;-82
2022/09/27 12:42:44;;;;;;;5.20;1.40;;;;;;;;;;4986097;28;21041;-84
2022/09/27 12:45:11;;;;;;;2.20;1.40;;;;;;;;;;4986195;28;20442;-82
2022/09/27 12:47:46;;;;;;;3.33;1.75;;;;;;;;;;4981062;28;20432;-83
2022/09/27 12:50:17;;;;;;;4.50;1.52;;;;;;;;;;4982812;28;20437;-83
2022/09/27 12:52:45;;;;;;;2.50;1.23;;;;;;;;;;4984613;28;20896;-82
2022/09/27 12:55:21;;;;;;;4.45;1.20;;;;;;;;;;4982528;28;20434;-83
2022/09/27 12:57:50;;;;;;;4.07;1.15;;;;;;;;;;4978908;28;20437;-81
2022/09/27 13:00:18;;;;;;;4.50;1.90;;;;;;;;;;4983958;28;20430;-84
2022/09/27 13:03:03;;;;;;;4.50;1.40;;;;;;;;;;4981058;28;20441;-84
2022/09/27 13:05:45;;;;;;;4.13;1.70;;;;;;;;;;4980333;28;20426;-83
2022/09/27 13:08:27;;;;;;;2.95;1.50;;;;;;;;;;4983212;28;20454;-83
2022/09/27 13:10:59;;;;;;;2.67;1.23;;;;;;;;;;4979167;28;20871;-84
2022/09/27 13:13:28;;;;;;;3.72;1.40;;;;;;;;;;4962275;28;20457;-83
2022/09/27 13:15:56;;;;;;;1.65;1.20;;;;;;;;;;4962880;28;20994;-84
2022/09/27 13:18:30;;;;;;;3.30;1.30;;;;;;;;;;4979893;28;20823;-83
2022/09/27 13:20:58;;;;;;;2.97;1.27;;;;;;;;;;4984664;28;20803;-84
2022/09/27 13:23:59;;;;;;;2.03;1.00;;;;;;;;;;4982698;28;20525;-84
2022/09/27 13:26:40;;;;;;;2.45;1.33;;;;;;;;;;4979356;28;20424;-82
2022/09/27 13:29:20;;;;;;;1.50;1.40;;;;;;;;;;4988109;28;20449;-81
2022/09/27 13:32:04;;;;;;;2.15;1.20;;;;;;;;;;4987712;28;20499;-82
2022/09/27 13:34:38;;;;;;;1.45;1.10;;;;;;;;;;4987925;28;20504;-84
2022/09/27 13:37:20;;;;;;;1.50;0.80;;;;;;;;;;4987991;28;20808;-85
2022/09/27 13:39:48;;;;;;;2.25;1.20;;;;;;;;;;4983929;28;20922;-81
2022/09/27 13:42:23;;;;;;;2.00;1.00;;;;;;;;;;5017271;28;20927;-82
2022/09/27 13:44:55;;;;;;;1.25;0.90;;;;;;;;;;4988697;28;20424;-84
2022/09/27 13:47:27;;;;;;;1.83;1.30;;;;;;;;;;4985198;28;20537;-82
2022/09/27 13:49:55;;;;;;;1.90;1.00;;;;;;;;;;4986464;28;20435;-86
2022/09/27 13:52:25;;;;;;;1.63;1.10;;;;;;;;;;4986021;28;20431;-84
2022/09/27 13:54:54;;;;;;;1.50;1.10;;;;;;;;;;4990241;28;20775;-82
2022/09/27 13:57:44;;;;;;;1.95;1.50;;;;;;;;;;4986741;28;20439;-84
2022/09/27 14:00:12;;;;;;;1.02;0.90;;;;;;;;;;4988610;28;20449;-83
2022/09/27 14:02:41;;;;;;;4.00;1.40;;;;;;;;;;4986252;28;20432;-84
2022/09/27 14:05:11;;;;;;;1.35;1.00;;;;;;;;;;4985614;28;20435;-84
2022/09/27 14:07:41;;;;;;;2.20;1.30;;;;;;;;;;4985480;28;20776;-85
2022/09/27 14:10:12;;;;;;;3.30;1.20;;;;;;;;;;4987614;28;20434;-83
2022/09/27 14:12:40;;;;;;;3.83;1.70;;;;;;;;;;4981476;28;20422;-84
2022/09/27 14:15:07;;;;;;;2.00;1.30;;;;;;;;;;4988344;28;20430;-82
2022/09/27 14:17:35;;;;;;;1.08;0.95;;;;;;;;;;4984671;28;20437;-83
2022/09/27 14:20:02;;;;;;;1.75;1.27;;;;;;;;;;4985703;28;20812;-84
2022/09/27 14:22:29;;;;;;;1.23;0.70;;;;;;;;;;4982819;28;20431;-84
2022/09/27 14:24:55;;;;;;;2.10;1.40;;;;;;;;;;4984596;28;20438;-84
2022/09/27 14:27:24;;;;;;;3.70;1.63;;;;;;;;;;4982926;28;20455;-84
2022/09/27 14:29:52;;;;;;;2.42;1.30;;;;;;;;;;4986104;28;20926;-82
2022/09/27 14:32:19;;;;;;;2.00;1.60;;;;;;;;;;4985175;28;21055;-82
2022/09/27 14:34:46;;;;;;;2.20;1.10;;;;;;;;;;4986509;28;20439;-81
2022/09/27 14:37:23;;;;;;;1.40;0.95;;;;;;;;;;4982912;28;20428;-85
2022/09/27 14:39:53;;;;;;;3.85;1.30;;;;;;;;;;4984982;28;20423;-84
2022/09/27 14:42:21;;;;;;;2.40;1.00;;;;;;;;;;4985198;28;20431;-84
2022/09/27 14:44:49;;;;;;;1.85;0.93;;;;;;;;;;4985382;28;20903;-85
2022/09/27 14:47:17;;;;;;;2.40;1.20;;;;;;;;;;4985826;28;20765;-84
2022/09/27 14:49:48;;;;;;;3.10;1.07;;;;;;;;;;4984899;28;20430;-84
2022/09/27 14:52:17;;;;;;;1.20;1.10;;;;;;;;;;4984279;28;20420;-82
2022/09/27 14:54:46;;;;;;;2.65;1.13;;;;;;;;;;4983861;28;20434;-84